Lancaster Airport
KLNS : now visible

Airfield :











YOU CAN JOIN US ON...

 
LOGIN :

Register | Disclaimer

   EN    FR    IT 

 









Legend :    VFR   Marginal VFR   IFR   Intensive IFR   Very Intensive IFR
Visi :
Ceiling :
>= 8 km
>= 3000ft
5 to 8 km
1000 to 3000 ft
1500m to 5 km
500 to 1000 ft
800 to 1500m
200 to 500 ft
< 800m
< 200 ft
Symbols :   Thunderstorms  Fog  Heavy snow  Heavy precipitations  Wind > 20 kt







- Airport Elevation : 403 ft
- IATA code : LNS


KLNS - Lancaster

CURRENT METAR :
  • 211753Z 08006KT 10SM SCT055 18/07 A2998 RMK AO2 SLP152 T01830072 10194 20128 51006

EXPIRED METARs :
  • 211653Z VRB04KT 10SM FEW049 17/07 A2998 RMK AO2 SLP152 T01720072
  • 211553Z VRB03KT 10SM BKN049 17/08 A2998 RMK AO2 SLP151 T01670083

TAF KLNS
Valid from the 21 at 18:00 until the 22 at 18:00 UTC


211747Z 2118/2218 28005KT P6SM BKN060
FM220300 31004KT P6SM BKN035
FM221300 32009KT P6SM BKN100
KZNY FIR / North America



MET'MAP, your aeronautical weather chart ! - Copyright ORBIFLY December 2007 - Disclaimer

ORBIFLY MET'MAP TEAM :

Programming & Development : Alexandra Zaïnal
Concept & Development : Baudouin d'Aumeries
Co-Development & Prog : Marc-Olivier Méhu
Technical & hardware support : Manuel Goepfert

Contact : metmap@orbifly.com




SOURCES & CREDITS :

   NOAA       Earth
Advisory